Time;durP1;ratioP1;P1;durP2;ratioP2;P2;SDS_P1;SDS_P2;PMS_P1;PMS_P2;Temp;Humidity;BMP_temperature;BMP_pressure;BME280_temperature;BME280_humidity;BME280_pressure;Samples;Min_cycle;Max_cycle;Signal;HPM_P1;HPM_P2
2022/04/24 00:00:05;;;;;;;11.33;8.30;;;16.90;42.50;;;;;;5091534;27;20445;-86
2022/04/24 00:02:33;;;;;;;9.03;7.20;;;16.60;42.50;;;;;;5089173;28;21029;-85
2022/04/24 00:05:03;;;;;;;7.33;6.50;;;16.50;42.20;;;;;;5091488;27;20510;-85
2022/04/24 00:07:32;;;;;;;11.17;6.97;;;16.40;42.00;;;;;;5090375;27;20466;-85
2022/04/24 00:10:02;;;;;;;7.93;6.30;;;16.30;42.30;;;;;;5083743;27;20570;-85
2022/04/24 00:12:30;;;;;;;7.73;5.63;;;16.40;43.20;;;;;;5091980;27;20478;-86
2022/04/24 00:14:58;;;;;;;7.60;6.37;;;16.40;43.30;;;;;;5084124;27;20863;-87
2022/04/24 00:17:27;;;;;;;8.13;6.40;;;16.50;43.30;;;;;;5081431;27;20435;-85
2022/04/24 00:19:55;;;;;;;7.83;5.80;;;16.50;43.00;;;;;;5092955;28;20455;-85
2022/04/24 00:22:24;;;;;;;7.70;6.10;;;16.50;42.80;;;;;;5055049;27;20485;-84
2022/04/24 00:24:53;;;;;;;7.60;6.10;;;16.40;42.20;;;;;;5091660;27;20453;-86
2022/04/24 00:27:22;;;;;;;8.03;5.70;;;16.40;42.20;;;;;;5083244;27;20520;-84
2022/04/24 00:29:51;;;;;;;9.70;6.70;;;16.30;42.20;;;;;;5067510;27;21012;-86
2022/04/24 00:32:20;;;;;;;7.77;5.10;;;16.30;42.00;;;;;;5089466;27;20478;-85
2022/04/24 00:34:48;;;;;;;7.10;4.80;;;16.20;42.00;;;;;;5091376;27;20900;-86
2022/04/24 00:37:16;;;;;;;5.87;4.70;;;16.20;41.90;;;;;;5092497;27;20439;-85
2022/04/24 00:39:43;;;;;;;7.20;4.90;;;16.20;41.60;;;;;;5090584;28;20439;-85
2022/04/24 00:42:11;;;;;;;8.40;5.33;;;16.00;41.00;;;;;;5082960;27;20522;-85
2022/04/24 00:44:41;;;;;;;7.37;4.60;;;15.90;41.10;;;;;;5072466;27;20953;-85
2022/04/24 00:47:35;;;;;;;7.20;4.73;;;15.90;41.70;;;;;;5086055;27;20463;-85
2022/04/24 00:50:03;;;;;;;6.30;5.07;;;15.90;41.80;;;;;;5090301;27;20813;-85
2022/04/24 00:52:32;;;;;;;5.73;4.57;;;15.80;41.10;;;;;;5092344;27;21239;-84
2022/04/24 00:55:01;;;;;;;6.57;5.40;;;15.60;41.40;;;;;;5091078;27;20446;-85
2022/04/24 00:57:30;;;;;;;9.73;6.00;;;15.60;41.90;;;;;;5100925;27;20450;-85
2022/04/24 01:00:02;;;;;;;6.30;4.53;;;15.60;41.60;;;;;;5075847;28;20489;-85
2022/04/24 01:02:31;;;;;;;4.53;4.07;;;15.60;40.80;;;;;;5084491;27;20501;-85
2022/04/24 01:04:59;;;;;;;9.43;5.00;;;15.40;40.90;;;;;;5071019;27;20443;-86
2022/04/24 01:07:30;;;;;;;6.60;5.53;;;15.20;41.60;;;;;;5090722;27;20608;-85
2022/04/24 01:10:00;;;;;;;6.50;5.33;;;15.10;42.00;;;;;;5104282;27;20821;-85
2022/04/24 01:12:30;;;;;;;6.40;4.60;;;14.80;42.50;;;;;;5110202;28;20536;-84
2022/04/24 01:15:01;;;;;;;5.40;4.90;;;14.90;42.60;;;;;;5091943;28;20446;-84
2022/04/24 01:17:29;;;;;;;7.30;4.13;;;15.00;41.90;;;;;;5089239;28;20465;-85
2022/04/24 01:19:57;;;;;;;3.97;3.60;;;15.10;41.60;;;;;;5081614;28;21140;-84
2022/04/24 01:22:27;;;;;;;7.97;4.73;;;15.10;41.40;;;;;;5075964;28;20481;-85
2022/04/24 01:24:56;;;;;;;4.50;4.10;;;15.10;41.20;;;;;;5089630;28;20430;-85
2022/04/24 01:27:24;;;;;;;6.33;4.60;;;15.20;41.10;;;;;;5090625;28;20582;-86
2022/04/24 01:29:53;;;;;;;8.23;4.37;;;15.30;41.20;;;;;;5063287;28;21099;-86
2022/04/24 01:32:21;;;;;;;4.80;3.67;;;15.30;41.00;;;;;;5072073;28;20470;-85
2022/04/24 01:34:50;;;;;;;6.60;4.17;;;15.40;40.90;;;;;;5081687;28;20439;-85
2022/04/24 01:37:17;;;;;;;5.53;4.03;;;15.50;40.50;;;;;;5111484;28;20494;-85
2022/04/24 01:39:47;;;;;;;5.83;4.47;;;15.50;40.60;;;;;;5076057;28;20445;-86
2022/04/24 01:42:15;;;;;;;4.07;3.67;;;15.40;40.60;;;;;;5093095;28;20478;-85
2022/04/24 01:44:44;;;;;;;5.37;4.23;;;15.40;40.60;;;;;;5091640;28;21004;-84
2022/04/24 01:47:12;;;;;;;6.07;4.33;;;15.40;41.30;;;;;;5089039;28;20447;-85
2022/04/24 01:49:40;;;;;;;6.27;3.60;;;15.40;41.30;;;;;;5099802;28;20463;-85
2022/04/24 01:52:10;;;;;;;4.80;3.70;;;15.40;40.30;;;;;;5089572;28;20461;-84
2022/04/24 01:54:39;;;;;;;5.43;2.80;;;15.50;40.50;;;;;;5089851;28;20485;-86
2022/04/24 01:57:09;;;;;;;3.97;3.40;;;15.20;38.90;;;;;;5091417;28;20454;-85
2022/04/24 01:59:37;;;;;;;5.27;4.10;;;15.10;40.80;;;;;;5082674;28;20450;-87
2022/04/24 02:02:06;;;;;;;4.10;3.77;;;15.10;40.00;;;;;;5071851;27;20485;-85
2022/04/24 02:04:34;;;;;;;6.47;3.60;;;15.10;40.10;;;;;;5096525;27;20430;-86
2022/04/24 02:07:06;;;;;;;3.47;3.20;;;15.20;40.40;;;;;;5086884;27;20985;-84
2022/04/24 02:09:35;;;;;;;4.70;3.87;;;15.20;39.60;;;;;;5097391;27;20536;-84
2022/04/24 02:12:03;;;;;;;5.07;3.70;;;15.30;40.70;;;;;;5080885;27;20465;-86
2022/04/24 02:14:32;;;;;;;4.80;3.77;;;15.40;39.70;;;;;;5085005;27;20451;-84
2022/04/24 02:17:00;;;;;;;5.83;3.53;;;15.50;40.00;;;;;;5105026;27;20442;-86
2022/04/24 02:19:27;;;;;;;4.33;3.93;;;15.50;40.30;;;;;;5077763;27;20552;-86
2022/04/24 02:21:55;;;;;;;5.03;3.73;;;15.50;40.40;;;;;;5082512;27;20484;-85
2022/04/24 02:24:23;;;;;;;3.57;3.27;;;15.60;40.50;;;;;;5087653;27;20530;-84
2022/04/24 02:26:52;;;;;;;5.20;3.27;;;15.60;40.50;;;;;;5092350;27;20511;-84
2022/04/24 02:29:19;;;;;;;5.30;4.30;;;15.60;40.70;;;;;;5077371;27;21009;-84
2022/04/24 02:31:49;;;;;;;4.00;3.10;;;15.60;40.40;;;;;;5062360;27;20861;-84
2022/04/24 02:34:17;;;;;;;4.70;3.70;;;15.60;40.10;;;;;;5075398;28;20443;-84
2022/04/24 02:36:45;;;;;;;4.03;3.40;;;15.60;40.50;;;;;;5069647;27;20545;-85
2022/04/24 02:39:13;;;;;;;3.93;3.43;;;15.60;40.10;;;;;;5091846;27;21049;-84
2022/04/24 02:41:41;;;;;;;5.87;3.83;;;15.60;40.50;;;;;;5086945;27;20480;-84
2022/04/24 02:44:10;;;;;;;5.03;3.60;;;15.60;39.60;;;;;;5084494;27;20434;-84
2022/04/24 02:46:38;;;;;;;7.00;3.70;;;15.50;39.30;;;;;;5092644;27;20440;-84
2022/04/24 02:49:07;;;;;;;4.53;3.43;;;15.50;39.60;;;;;;5093506;27;20461;-85
2022/04/24 02:51:35;;;;;;;4.00;3.20;;;15.50;39.90;;;;;;5095895;27;20519;-85
2022/04/24 02:54:03;;;;;;;4.83;3.40;;;15.60;40.50;;;;;;5085780;27;20815;-85
2022/04/24 02:56:31;;;;;;;4.80;3.97;;;15.50;39.50;;;;;;5080631;27;20461;-86
2022/04/24 02:58:59;;;;;;;4.00;3.57;;;15.20;38.60;;;;;;5090945;27;20435;-87
2022/04/24 03:01:27;;;;;;;4.53;3.30;;;15.20;39.50;;;;;;5091992;27;20457;-86
2022/04/24 03:03:56;;;;;;;4.80;3.90;;;15.20;39.20;;;;;;5085319;27;20496;-86
2022/04/24 03:06:25;;;;;;;4.20;3.60;;;15.20;39.10;;;;;;5095553;27;20446;-86
2022/04/24 03:08:53;;;;;;;3.77;3.37;;;14.90;38.50;;;;;;5093896;27;20507;-85
2022/04/24 03:11:21;;;;;;;5.03;3.60;;;15.00;39.40;;;;;;5092608;27;20523;-86
2022/04/24 03:13:48;;;;;;;3.87;3.33;;;15.00;39.20;;;;;;5091666;27;20441;-85
2022/04/24 03:16:16;;;;;;;3.87;3.40;;;14.70;39.30;;;;;;5092101;27;20446;-85
2022/04/24 03:18:44;;;;;;;4.17;3.60;;;15.00;39.70;;;;;;5094603;27;20458;-84
2022/04/24 03:21:13;;;;;;;5.07;3.93;;;15.00;39.30;;;;;;5092523;27;20741;-85
2022/04/24 03:23:42;;;;;;;3.60;3.30;;;15.20;39.60;;;;;;5101802;27;20436;-85
2022/04/24 03:26:13;;;;;;;4.30;3.90;;;15.20;39.40;;;;;;5078387;27;20450;-85
2022/04/24 03:28:42;;;;;;;6.17;4.20;;;15.20;39.90;;;;;;5062376;27;20454;-84
2022/04/24 03:31:12;;;;;;;5.20;4.70;;;15.10;39.10;;;;;;5095045;27;20497;-85
2022/04/24 03:33:40;;;;;;;4.57;3.90;;;15.10;39.70;;;;;;5093275;27;20474;-84
2022/04/24 03:36:09;;;;;;;4.10;3.70;;;15.00;39.70;;;;;;5085813;27;20446;-85
2022/04/24 03:38:36;;;;;;;4.50;3.27;;;14.90;39.90;;;;;;5090837;27;20435;-86
2022/04/24 03:41:06;;;;;;;4.70;3.83;;;15.10;39.90;;;;;;5083758;27;20470;-85
2022/04/24 03:43:34;;;;;;;7.43;4.73;;;15.10;40.00;;;;;;5068032;27;20511;-87
2022/04/24 03:46:01;;;;;;;6.53;4.73;;;14.90;39.80;;;;;;5084950;27;20596;-85
2022/04/24 03:48:29;;;;;;;6.20;4.40;;;14.90;40.40;;;;;;5087495;27;20439;-86
2022/04/24 03:50:58;;;;;;;6.80;4.57;;;14.90;40.40;;;;;;5083592;27;20438;-85
2022/04/24 03:53:26;;;;;;;4.47;4.07;;;15.00;40.40;;;;;;5092315;27;20512;-85
2022/04/24 03:55:55;;;;;;;6.23;4.80;;;15.20;40.50;;;;;;5094544;27;20545;-86
2022/04/24 03:58:24;;;;;;;4.80;4.30;;;15.30;40.50;;;;;;5083580;27;20439;-85
2022/04/24 04:00:55;;;;;;;6.60;4.93;;;15.40;40.60;;;;;;5066221;27;20819;-84
2022/04/24 04:03:30;;;;;;;7.30;5.03;;;15.50;40.70;;;;;;5085151;27;20454;-84
2022/04/24 04:05:58;;;;;;;7.47;4.63;;;15.30;40.10;;;;;;5108317;27;20458;-84
2022/04/24 04:08:27;;;;;;;9.00;5.43;;;15.40;40.30;;;;;;5083939;27;20450;-84
2022/04/24 04:10:55;;;;;;;7.97;5.70;;;15.60;40.20;;;;;;5092882;27;21351;-84
2022/04/24 04:13:24;;;;;;;6.30;4.57;;;15.70;40.30;;;;;;5093476;27;20446;-84
2022/04/24 04:15:53;;;;;;;6.37;4.30;;;15.80;40.90;;;;;;5100545;27;20450;-84
2022/04/24 04:18:22;;;;;;;7.40;5.20;;;15.90;41.10;;;;;;5091911;27;20541;-86
2022/04/24 04:20:51;;;;;;;4.83;4.27;;;15.90;41.30;;;;;;5084597;27;20446;-85
2022/04/24 04:23:19;;;;;;;9.70;5.23;;;16.00;41.70;;;;;;5090330;27;20447;-85
2022/04/24 04:25:47;;;;;;;5.20;4.40;;;16.10;42.00;;;;;;5093994;27;21071;-84
2022/04/24 04:28:14;;;;;;;6.20;5.13;;;16.00;42.30;;;;;;5109973;27;20450;-85
2022/04/24 04:30:44;;;;;;;5.43;4.67;;;16.00;42.50;;;;;;5102039;27;20495;-84
2022/04/24 04:33:12;;;;;;;5.90;4.67;;;16.00;43.20;;;;;;5091330;27;20467;-84
2022/04/24 04:35:40;;;;;;;8.10;4.77;;;16.00;43.00;;;;;;5091338;27;22784;-84
2022/04/24 04:38:10;;;;;;;6.30;5.20;;;16.00;42.50;;;;;;5091191;27;20460;-84
2022/04/24 04:40:38;;;;;;;6.77;5.10;;;16.00;43.60;;;;;;5078430;27;20439;-84
2022/04/24 04:43:06;;;;;;;6.57;5.00;;;16.10;44.40;;;;;;5100101;27;20459;-85
2022/04/24 04:45:35;;;;;;;5.73;5.13;;;16.10;44.20;;;;;;5090310;27;20449;-85
2022/04/24 04:48:05;;;;;;;6.13;4.63;;;15.90;43.80;;;;;;5101853;27;20540;-84
2022/04/24 04:50:33;;;;;;;6.20;5.00;;;15.60;44.00;;;;;;5083846;27;21000;-84
2022/04/24 04:53:00;;;;;;;7.50;5.60;;;15.50;45.30;;;;;;5067410;28;21076;-84
2022/04/24 04:55:28;;;;;;;7.57;5.30;;;15.40;45.60;;;;;;5092343;27;20492;-84
2022/04/24 04:57:57;;;;;;;6.47;5.30;;;15.40;45.80;;;;;;5082094;28;20478;-84
2022/04/24 05:00:25;;;;;;;9.73;5.53;;;15.50;46.10;;;;;;5083703;27;20492;-84
2022/04/24 05:02:54;;;;;;;6.57;5.90;;;15.40;47.40;;;;;;5089713;28;20486;-84
2022/04/24 05:05:23;;;;;;;9.17;6.43;;;15.40;47.50;;;;;;5060515;27;20870;-85
2022/04/24 05:07:51;;;;;;;8.17;6.00;;;15.40;47.80;;;;;;5066609;28;20471;-84
2022/04/24 05:10:20;;;;;;;8.30;6.13;;;15.40;47.30;;;;;;5077558;28;21028;-84
2022/04/24 05:12:47;;;;;;;7.83;5.80;;;15.50;47.50;;;;;;5095568;28;21029;-84
2022/04/24 05:15:16;;;;;;;8.10;6.60;;;15.60;48.20;;;;;;5108038;28;20869;-85
2022/04/24 05:17:45;;;;;;;12.03;6.30;;;15.60;48.50;;;;;;5109122;28;20497;-85
2022/04/24 05:20:14;;;;;;;6.73;6.00;;;15.60;48.20;;;;;;5072415;28;20805;-85
2022/04/24 05:22:43;;;;;;;9.03;6.90;;;15.50;47.20;;;;;;5074254;28;20465;-85
2022/04/24 05:25:14;;;;;;;11.27;7.07;;;15.50;47.60;;;;;;5064079;28;21010;-84
2022/04/24 05:27:44;;;;;;;8.63;6.13;;;15.60;48.20;;;;;;5084202;28;20515;-86
2022/04/24 05:30:12;;;;;;;8.37;6.00;;;15.70;48.90;;;;;;5057369;28;20455;-85
2022/04/24 05:32:46;;;;;;;8.60;6.97;;;15.80;49.50;;;;;;5066443;28;20479;-86
2022/04/24 05:35:16;;;;;;;8.37;6.37;;;15.90;49.80;;;;;;5075161;28;20511;-84
2022/04/24 05:37:47;;;;;;;8.60;6.67;;;15.90;49.50;;;;;;5089747;27;20437;-84
2022/04/24 05:40:16;;;;;;;10.80;7.23;;;15.90;49.00;;;;;;5095023;27;20924;-85
2022/04/24 05:42:48;;;;;;;9.87;6.87;;;15.90;48.80;;;;;;5083102;27;20552;-84
2022/04/24 05:45:18;;;;;;;9.50;7.40;;;15.80;49.20;;;;;;5076969;27;20446;-84
2022/04/24 05:47:46;;;;;;;9.10;6.73;;;15.90;49.10;;;;;;5091081;28;20440;-84
2022/04/24 05:50:15;;;;;;;11.87;7.40;;;15.90;50.80;;;;;;5085852;27;20565;-84
2022/04/24 05:52:45;;;;;;;13.73;8.23;;;15.90;50.90;;;;;;5093725;27;20454;-84
2022/04/24 05:55:13;;;;;;;11.87;8.07;;;16.00;50.60;;;;;;5085143;27;20478;-85
2022/04/24 05:57:41;;;;;;;10.90;7.80;;;16.20;51.00;;;;;;5085796;27;20507;-85
2022/04/24 06:00:11;;;;;;;9.63;7.10;;;16.20;50.80;;;;;;5091320;27;20458;-85
2022/04/24 06:02:42;;;;;;;11.03;7.53;;;16.20;50.60;;;;;;5078824;27;20474;-84
2022/04/24 06:05:11;;;;;;;10.17;7.80;;;16.30;50.40;;;;;;5111769;27;20449;-84
2022/04/24 06:07:39;;;;;;;8.67;7.37;;;16.30;50.70;;;;;;5090566;27;20451;-85
2022/04/24 06:10:11;;;;;;;11.90;8.80;;;16.40;50.80;;;;;;5074268;27;20458;-85
2022/04/24 06:12:50;;;;;;;9.20;7.20;;;16.50;51.20;;;;;;5101174;27;20461;-84
2022/04/24 06:15:21;;;;;;;13.03;9.00;;;16.40;49.70;;;;;;5094072;27;21257;-84
2022/04/24 06:17:50;;;;;;;12.60;9.10;;;16.40;48.50;;;;;;5111137;27;20447;-83
2022/04/24 06:20:19;;;;;;;15.93;10.60;;;16.40;49.50;;;;;;5091342;27;20465;-86
2022/04/24 06:22:49;;;;;;;11.30;8.03;;;16.50;49.00;;;;;;5092212;27;20480;-85
2022/04/24 06:25:19;;;;;;;12.20;8.53;;;16.60;50.00;;;;;;5092895;27;20448;-85
2022/04/24 06:27:48;;;;;;;12.27;8.80;;;16.60;49.30;;;;;;5077157;27;20455;-85
2022/04/24 06:30:18;;;;;;;11.90;8.60;;;16.60;49.60;;;;;;5083610;27;20562;-85
2022/04/24 06:32:46;;;;;;;9.50;8.20;;;16.70;49.00;;;;;;5100885;27;20453;-85
2022/04/24 06:35:16;;;;;;;11.37;8.10;;;16.50;49.20;;;;;;5078248;27;20453;-85
2022/04/24 06:37:45;;;;;;;12.40;8.87;;;16.50;49.80;;;;;;5075290;27;20456;-85
2022/04/24 06:40:15;;;;;;;11.33;8.40;;;16.60;50.70;;;;;;5076791;27;20466;-86
2022/04/24 06:42:51;;;;;;;11.87;8.50;;;16.70;49.60;;;;;;5073755;27;20464;-84
2022/04/24 06:45:25;;;;;;;13.47;9.60;;;16.70;49.40;;;;;;5058403;27;20447;-85
2022/04/24 06:47:53;;;;;;;13.07;8.50;;;16.70;49.60;;;;;;5108816;27;20446;-84
2022/04/24 06:50:22;;;;;;;13.03;9.33;;;16.80;49.70;;;;;;5075134;27;20819;-85
2022/04/24 06:52:58;;;;;;;14.87;9.10;;;16.70;48.90;;;;;;5101241;27;20471;-85
2022/04/24 06:55:26;;;;;;;13.07;10.13;;;16.70;48.80;;;;;;5088222;27;20847;-85
2022/04/24 06:57:55;;;;;;;12.93;9.53;;;16.70;48.70;;;;;;5082278;27;20450;-86
2022/04/24 07:00:25;;;;;;;16.60;10.70;;;16.80;50.20;;;;;;5089268;27;20431;-84
2022/04/24 07:02:53;;;;;;;12.20;9.40;;;16.80;49.90;;;;;;5077245;27;20465;-86
2022/04/24 07:05:22;;;;;;;10.00;8.40;;;16.80;48.80;;;;;;5061442;27;21530;-85
2022/04/24 07:07:51;;;;;;;12.73;8.93;;;16.80;48.80;;;;;;5089385;27;20438;-84
2022/04/24 07:10:18;;;;;;;14.00;10.10;;;16.60;47.80;;;;;;5090679;27;21322;-85
2022/04/24 07:12:47;;;;;;;16.30;10.80;;;16.60;48.30;;;;;;5092211;27;20474;-84
2022/04/24 07:15:18;;;;;;;16.83;11.70;;;16.70;49.90;;;;;;5092466;27;20450;-85
2022/04/24 07:17:47;;;;;;;14.40;10.57;;;16.70;50.40;;;;;;5090167;27;20446;-85
2022/04/24 07:20:16;;;;;;;17.30;11.17;;;16.80;50.70;;;;;;5081612;27;21328;-85
2022/04/24 07:22:45;;;;;;;12.40;8.63;;;16.80;50.90;;;;;;5072703;27;20577;-86
2022/04/24 07:25:14;;;;;;;11.13;9.30;;;16.80;49.00;;;;;;5075537;27;20447;-85
2022/04/24 07:27:42;;;;;;;11.27;9.03;;;16.80;49.10;;;;;;5076862;27;20901;-85
2022/04/24 07:30:13;;;;;;;16.53;9.77;;;16.70;48.70;;;;;;5075455;27;20527;-85
2022/04/24 07:32:45;;;;;;;13.50;9.50;;;16.70;49.60;;;;;;5076087;27;20472;-85
2022/04/24 07:35:15;;;;;;;13.27;9.90;;;16.70;48.50;;;;;;5088599;27;20869;-85
2022/04/24 07:37:44;;;;;;;20.70;10.03;;;16.80;49.60;;;;;;5060629;28;20679;-87
2022/04/24 07:40:16;;;;;;;13.53;10.67;;;16.90;50.40;;;;;;5089302;27;20980;-85
2022/04/24 07:42:48;;;;;;;11.57;9.30;;;17.00;51.00;;;;;;5088315;27;20469;-86
2022/04/24 07:45:24;;;;;;;16.07;11.00;;;16.90;49.80;;;;;;5099101;27;20600;-85
2022/04/24 07:47:55;;;;;;;14.83;10.43;;;16.50;48.70;;;;;;5088753;27;20446;-85
2022/04/24 07:50:25;;;;;;;14.20;10.50;;;16.60;49.90;;;;;;5090565;27;20454;-85
2022/04/24 07:52:54;;;;;;;15.77;9.77;;;16.70;50.20;;;;;;5089944;27;20494;-85
2022/04/24 07:55:23;;;;;;;13.90;9.83;;;16.80;50.50;;;;;;5093722;27;20443;-84
2022/04/24 07:57:53;;;;;;;15.57;10.13;;;16.80;50.90;;;;;;5083680;27;20438;-84
2022/04/24 08:00:22;;;;;;;15.20;11.10;;;16.90;51.40;;;;;;5093523;27;20981;-85
2022/04/24 08:02:54;;;;;;;13.40;10.50;;;16.90;51.30;;;;;;5089946;27;20451;-84
2022/04/24 08:05:25;;;;;;;16.00;11.43;;;16.90;51.10;;;;;;5091384;27;20506;-84
2022/04/24 08:07:55;;;;;;;42.03;35.23;;;16.90;51.00;;;;;;5092926;27;20489;-84
2022/04/24 08:10:26;;;;;;;18.43;12.77;;;16.80;50.10;;;;;;5074965;27;21039;-85
2022/04/24 08:12:54;;;;;;;15.63;12.23;;;16.70;51.10;;;;;;5065625;27;20560;-84
2022/04/24 08:15:23;;;;;;;20.63;14.37;;;16.70;51.80;;;;;;5084016;27;20439;-83
2022/04/24 08:17:52;;;;;;;18.10;12.43;;;16.80;52.00;;;;;;5089622;28;21029;-85
2022/04/24 08:20:20;;;;;;;19.37;13.40;;;16.80;52.10;;;;;;5079417;27;20566;-86
2022/04/24 08:22:49;;;;;;;18.40;13.73;;;16.80;52.90;;;;;;5072373;27;20486;-86
2022/04/24 08:25:19;;;;;;;21.87;13.87;;;16.80;53.60;;;;;;5074604;27;20932;-87
2022/04/24 08:27:48;;;;;;;20.10;15.20;;;16.70;54.00;;;;;;5072837;28;20454;-87
2022/04/24 08:30:17;;;;;;;21.73;14.50;;;16.70;54.40;;;;;;5071601;27;20837;-88
2022/04/24 08:32:47;;;;;;;21.17;14.80;;;16.70;54.20;;;;;;5091220;27;20747;-87
2022/04/24 08:35:18;;;;;;;22.37;15.63;;;16.70;54.70;;;;;;5097133;27;20442;-86
2022/04/24 08:37:46;;;;;;;21.60;13.80;;;16.70;54.90;;;;;;5090899;27;21574;-87
2022/04/24 08:40:17;;;;;;;24.30;15.07;;;16.70;55.10;;;;;;5071101;28;20817;-88
2022/04/24 08:42:45;;;;;;;24.30;17.27;;;16.70;55.30;;;;;;5098131;27;20465;-87
2022/04/24 08:45:15;;;;;;;19.80;13.53;;;16.80;55.50;;;;;;5070562;27;20485;-88
2022/04/24 08:47:43;;;;;;;21.77;13.40;;;16.80;54.80;;;;;;5074673;27;20458;-89
2022/04/24 08:50:12;;;;;;;21.43;12.40;;;16.70;54.60;;;;;;5075071;27;20460;-89
2022/04/24 08:52:44;;;;;;;18.17;13.90;;;16.80;55.00;;;;;;5096385;27;20454;-90
2022/04/24 08:55:13;;;;;;;28.43;20.20;;;16.80;55.20;;;;;;5086454;27;20514;-88
2022/04/24 08:57:41;;;;;;;26.50;17.37;;;16.80;55.20;;;;;;5089906;27;20439;-88
2022/04/24 09:00:10;;;;;;;23.87;15.43;;;16.80;55.20;;;;;;5091092;27;20535;-88
2022/04/24 09:02:40;;;;;;;19.13;13.73;;;16.50;56.00;;;;;;5060443;28;20879;-89
2022/04/24 09:05:08;;;;;;;20.77;13.77;;;16.50;56.50;;;;;;5065964;28;20520;-88
2022/04/24 09:07:36;;;;;;;22.27;13.40;;;16.50;56.50;;;;;;5078201;27;20441;-90
2022/04/24 09:10:09;;;;;;;19.47;13.53;;;16.60;56.40;;;;;;5092816;27;20539;-88
2022/04/24 09:12:38;;;;;;;23.20;15.07;;;16.70;56.50;;;;;;5097026;27;20995;-89
2022/04/24 09:15:07;;;;;;;21.80;14.57;;;16.80;56.30;;;;;;5080955;28;20457;-88
2022/04/24 09:17:36;;;;;;;21.90;14.27;;;16.80;55.70;;;;;;5086962;28;21033;-88
2022/04/24 09:20:17;;;;;;;20.57;14.30;;;16.90;55.60;;;;;;5081310;28;20443;-88
2022/04/24 09:22:45;;;;;;;23.70;13.60;;;16.80;55.60;;;;;;5089498;28;20475;-89
2022/04/24 09:25:15;;;;;;;21.57;15.40;;;16.90;56.00;;;;;;5086531;28;21107;-88
2022/04/24 09:27:43;;;;;;;27.13;16.47;;;16.90;56.20;;;;;;5073739;28;21292;-88
2022/04/24 09:30:13;;;;;;;23.10;16.37;;;16.90;56.20;;;;;;5074862;28;20582;-89
2022/04/24 09:32:49;;;;;;;21.27;14.10;;;16.80;55.40;;;;;;5080863;28;20454;-89
2022/04/24 09:35:26;;;;;;;24.37;14.57;;;16.70;55.10;;;;;;5072329;28;20435;-88
2022/04/24 09:38:04;;;;;;;18.03;12.47;;;16.80;56.30;;;;;;5072923;28;20521;-88
2022/04/24 09:40:40;;;;;;;20.30;14.80;;;16.90;56.10;;;;;;5074798;28;20473;-90
2022/04/24 09:43:09;;;;;;;21.60;15.00;;;17.00;55.80;;;;;;5090156;28;20550;-90
2022/04/24 09:45:38;;;;;;;21.00;14.07;;;17.00;55.70;;;;;;5073251;28;20453;-89
2022/04/24 09:48:14;;;;;;;22.90;14.00;;;17.10;55.40;;;;;;5081670;28;20534;-87
2022/04/24 09:50:44;;;;;;;20.50;13.87;;;16.90;54.50;;;;;;5088693;28;20560;-87
2022/04/24 09:53:13;;;;;;;19.87;14.67;;;16.80;55.90;;;;;;5089790;28;20812;-88
2022/04/24 09:55:44;;;;;;;21.80;14.77;;;16.60;55.80;;;;;;5089578;28;20542;-88
2022/04/24 09:58:20;;;;;;;21.43;15.03;;;16.50;56.10;;;;;;5091419;28;20446;-88
2022/04/24 10:00:52;;;;;;;24.27;15.57;;;16.50;56.40;;;;;;5079761;28;20438;-88
2022/04/24 10:03:21;;;;;;;23.53;15.97;;;16.40;55.40;;;;;;5067367;28;20877;-87
2022/04/24 10:05:50;;;;;;;29.83;16.13;;;16.40;56.60;;;;;;5085352;28;20452;-88
2022/04/24 10:08:19;;;;;;;24.63;15.00;;;16.50;56.90;;;;;;5093379;28;20447;-87
2022/04/24 10:10:48;;;;;;;20.70;14.10;;;16.60;56.90;;;;;;5091463;28;20469;-88
2022/04/24 10:13:19;;;;;;;21.70;13.80;;;16.70;56.70;;;;;;5082869;28;20442;-87
2022/04/24 10:15:50;;;;;;;22.83;18.00;;;16.60;56.30;;;;;;5062621;28;20450;-87
2022/04/24 10:18:35;;;;;;;21.10;14.57;;;16.70;56.30;;;;;;5092867;28;20461;-87
2022/04/24 10:21:35;;;;;;;20.83;14.57;;;16.80;56.50;;;;;;5082079;28;20519;-88
2022/04/24 10:24:11;;;;;;;239.70;127.37;;;16.70;56.60;;;;;;5082886;27;20465;-87
2022/04/24 10:26:51;;;;;;;65.67;42.50;;;16.80;56.90;;;;;;5094966;27;20438;-88
2022/04/24 10:29:20;;;;;;;22.67;15.40;;;17.00;56.30;;;;;;5061039;27;20554;-87
2022/04/24 10:31:49;;;;;;;24.23;15.73;;;17.10;56.20;;;;;;5093703;27;21103;-88
2022/04/24 10:34:18;;;;;;;28.87;18.90;;;17.10;54.90;;;;;;5080324;27;20438;-89
2022/04/24 10:36:56;;;;;;;28.23;17.87;;;17.20;55.20;;;;;;5080571;27;20553;-87
2022/04/24 10:39:28;;;;;;;23.40;17.20;;;17.30;55.30;;;;;;5104019;27;20545;-87
2022/04/24 10:42:01;;;;;;;22.27;14.77;;;17.30;56.10;;;;;;5072999;27;20777;-86
2022/04/24 10:44:29;;;;;;;18.27;13.63;;;17.40;55.90;;;;;;5085710;27;20458;-88
2022/04/24 10:46:59;;;;;;;18.73;13.30;;;17.30;54.80;;;;;;5079153;27;20871;-85
2022/04/24 10:49:35;;;;;;;20.97;14.23;;;17.30;54.60;;;;;;5091012;27;20891;-86
2022/04/24 10:52:05;;;;;;;18.50;13.90;;;17.40;54.80;;;;;;5077790;27;20560;-87
2022/04/24 10:54:35;;;;;;;19.63;13.80;;;17.40;55.00;;;;;;5096671;27;20861;-87
2022/04/24 10:57:16;;;;;;;21.43;14.70;;;17.40;54.60;;;;;;5093319;27;20808;-87
2022/04/24 10:59:48;;;;;;;26.70;15.80;;;17.40;53.50;;;;;;5092549;27;20444;-87
2022/04/24 11:02:21;;;;;;;21.70;14.33;;;17.50;54.30;;;;;;5103608;27;20490;-88
2022/04/24 11:04:59;;;;;;;19.63;13.90;;;17.30;54.00;;;;;;5086500;27;21036;-87
2022/04/24 11:07:31;;;;;;;20.13;13.63;;;17.40;54.80;;;;;;5085298;27;20502;-88
2022/04/24 11:10:02;;;;;;;19.43;12.13;;;17.70;54.60;;;;;;5071417;27;20559;-87
2022/04/24 11:12:33;;;;;;;15.27;11.80;;;17.80;53.30;;;;;;5079778;27;20473;-87
2022/04/24 11:15:06;;;;;;;15.83;11.43;;;17.90;52.00;;;;;;5095803;27;20450;-89
2022/04/24 11:17:36;;;;;;;14.80;11.37;;;17.80;51.80;;;;;;5076378;27;20534;-87
2022/04/24 11:20:08;;;;;;;15.27;11.77;;;18.00;53.30;;;;;;5076525;27;20850;-88
2022/04/24 11:22:50;;;;;;;18.60;11.40;;;18.10;51.80;;;;;;5080344;27;20542;-86
2022/04/24 11:25:19;;;;;;;15.10;12.43;;;18.10;50.60;;;;;;5077369;27;20518;-87
2022/04/24 11:27:53;;;;;;;14.40;11.50;;;18.10;51.40;;;;;;5093855;27;20434;-87
2022/04/24 11:30:22;;;;;;;16.97;12.80;;;17.90;51.20;;;;;;5109279;27;20510;-87
2022/04/24 11:32:59;;;;;;;26.47;16.60;;;17.70;51.20;;;;;;5103610;27;20476;-86
2022/04/24 11:35:30;;;;;;;16.00;11.37;;;17.70;52.30;;;;;;5084075;27;20575;-88
2022/04/24 11:37:59;;;;;;;17.50;12.73;;;17.60;51.20;;;;;;5084800;27;20484;-88
2022/04/24 11:40:29;;;;;;;16.00;12.33;;;17.60;52.30;;;;;;5092584;27;20435;-88
2022/04/24 11:43:04;;;;;;;15.73;11.80;;;17.50;52.00;;;;;;5085484;27;20465;-88
2022/04/24 11:51:15;;;;;;;20.00;12.50;;;17.30;52.90;;;;;;5074713;27;20471;-89
2022/04/24 11:53:44;;;;;;;16.97;12.63;;;17.00;51.80;;;;;;5095226;27;20537;-88
2022/04/24 11:56:13;;;;;;;18.70;13.07;;;16.90;52.60;;;;;;5092634;27;20537;-88
2022/04/24 11:58:44;;;;;;;16.10;11.03;;;17.00;52.50;;;;;;5068154;27;20453;-89
2022/04/24 12:01:14;;;;;;;17.30;11.83;;;17.10;52.60;;;;;;5077931;27;22035;-89
2022/04/24 12:03:44;;;;;;;20.73;11.57;;;16.90;52.30;;;;;;5079672;27;22055;-89
2022/04/24 12:06:13;;;;;;;15.97;12.43;;;16.80;52.10;;;;;;5077816;28;20475;-88
2022/04/24 12:08:44;;;;;;;15.20;12.37;;;17.00;53.20;;;;;;5087840;27;20442;-91
2022/04/24 12:11:23;;;;;;;14.00;10.80;;;16.90;52.20;;;;;;5080928;27;20514;-89
2022/04/24 12:14:05;;;;;;;14.53;9.30;;;17.20;52.70;;;;;;5096787;27;20450;-88
2022/04/24 12:16:35;;;;;;;10.40;8.50;;;17.50;51.80;;;;;;5113417;27;21193;-90
2022/04/24 12:19:12;;;;;;;12.90;9.83;;;17.50;50.40;;;;;;5074750;28;20439;-90
2022/04/24 12:21:48;;;;;;;14.13;10.30;;;17.60;50.90;;;;;;5066413;27;20466;-89
2022/04/24 12:24:16;;;;;;;14.80;10.53;;;17.60;49.90;;;;;;5096550;27;21248;-90
2022/04/24 12:26:49;;;;;;;12.63;9.50;;;17.80;50.60;;;;;;5088198;27;20448;-89
2022/04/24 12:29:18;;;;;;;14.57;10.30;;;17.60;49.40;;;;;;5093972;27;20434;-89
2022/04/24 12:31:48;;;;;;;12.63;9.93;;;17.60;50.90;;;;;;5084893;27;20556;-89
2022/04/24 12:34:16;;;;;;;15.40;9.37;;;17.70;50.50;;;;;;5103869;27;20465;-90
2022/04/24 12:36:50;;;;;;;14.07;9.67;;;17.70;49.20;;;;;;5081324;27;20443;-89
2022/04/24 12:39:25;;;;;;;13.00;9.87;;;17.80;51.20;;;;;;5096208;27;20445;-89
2022/04/24 12:41:53;;;;;;;11.60;9.93;;;17.90;50.90;;;;;;5066221;27;20552;-89
2022/04/24 12:44:22;;;;;;;16.03;9.83;;;18.00;49.90;;;;;;5101587;27;20878;-89
2022/04/24 12:46:50;;;;;;;12.80;8.87;;;18.10;49.60;;;;;;5085462;27;20443;-89
2022/04/24 12:49:28;;;;;;;12.07;9.77;;;17.90;49.60;;;;;;5087319;27;20454;-89
2022/04/24 12:51:56;;;;;;;11.47;9.10;;;17.80;49.70;;;;;;5089262;27;20471;-91
2022/04/24 12:54:25;;;;;;;11.73;9.17;;;17.80;49.40;;;;;;5069065;28;20446;-89
2022/04/24 12:56:52;;;;;;;13.47;10.03;;;17.80;49.90;;;;;;5063273;27;20531;-90